createdAt,value
2023-01-04T00:01:21.813Z,7.90
2023-01-04T00:03:48.944Z,7.90
2023-01-04T00:06:17.298Z,7.90
2023-01-04T00:08:44.244Z,8.00
2023-01-04T00:11:14.453Z,8.00
2023-01-04T00:13:41.569Z,8.00
2023-01-04T00:16:12.073Z,7.90
2023-01-04T00:18:39.232Z,7.90
2023-01-04T00:21:10.671Z,7.80
2023-01-04T00:23:42.236Z,7.80
2023-01-04T00:26:15.214Z,7.80
2023-01-04T00:28:45.853Z,7.80
2023-01-04T00:31:16.342Z,7.80
2023-01-04T00:33:43.473Z,7.80
2023-01-04T00:36:13.303Z,7.80
2023-01-04T00:38:41.427Z,7.80
2023-01-04T00:41:28.267Z,7.70
2023-01-04T00:44:12.736Z,7.70
2023-01-04T00:46:46.800Z,7.70
2023-01-04T00:49:15.434Z,7.70
2023-01-04T00:51:42.801Z,7.70
2023-01-04T00:54:13.665Z,7.70
2023-01-04T00:56:40.727Z,7.70
2023-01-04T00:59:07.692Z,7.70
2023-01-04T01:01:35.486Z,7.60
2023-01-04T01:04:04.583Z,7.60
2023-01-04T01:06:33.050Z,7.70
2023-01-04T01:09:01.056Z,7.70
2023-01-04T01:11:29.216Z,7.70
2023-01-04T01:13:57.482Z,7.60
2023-01-04T01:19:13.687Z,7.60
2023-01-04T01:21:40.708Z,7.60
2023-01-04T01:24:10.347Z,7.60
2023-01-04T01:26:37.391Z,7.60
2023-01-04T01:29:04.315Z,7.60
2023-01-04T01:31:31.675Z,7.60
2023-01-04T01:33:58.738Z,7.60
2023-01-04T01:36:26.886Z,7.60
2023-01-04T01:38:54.903Z,7.60
2023-01-04T01:41:25.469Z,7.50
2023-01-04T01:44:02.337Z,7.50
2023-01-04T01:46:39.144Z,7.40
2023-01-04T01:49:21.778Z,7.50
2023-01-04T01:51:49.141Z,7.50
2023-01-04T01:54:26.969Z,7.50
2023-01-04T01:56:56.784Z,7.50
2023-01-04T01:59:25.156Z,7.50
2023-01-04T02:01:52.321Z,7.50
2023-01-04T02:04:19.365Z,7.50
2023-01-04T02:06:50.989Z,7.50
2023-01-04T02:09:19.476Z,7.40
2023-01-04T02:11:46.434Z,7.40
2023-01-04T02:14:27.134Z,7.40
2023-01-04T02:17:12.909Z,7.50
2023-01-04T02:20:12.553Z,7.50
2023-01-04T02:22:54.500Z,7.50
2023-01-04T02:25:51.546Z,7.60
2023-01-04T02:28:24.575Z,7.50
2023-01-04T02:31:15.847Z,7.60
2023-01-04T02:33:42.823Z,7.60
2023-01-04T02:36:26.531Z,7.70
2023-01-04T02:44:47.785Z,7.80
2023-01-04T03:03:55.472Z,7.70
2023-01-04T03:06:44.515Z,7.60
2023-01-04T03:09:25.845Z,7.70
2023-01-04T03:12:22.782Z,7.60
2023-01-04T03:15:00.535Z,7.60
2023-01-04T03:17:33.075Z,7.60
2023-01-04T03:20:00.754Z,7.50
2023-01-04T03:22:55.750Z,7.50
2023-01-04T03:26:05.106Z,7.40
2023-01-04T03:28:54.700Z,7.40
2023-01-04T03:32:24.661Z,7.40
2023-01-04T03:35:10.379Z,7.40
2023-01-04T03:38:18.247Z,7.30
2023-01-04T03:41:15.364Z,7.30
2023-01-04T03:44:09.862Z,7.20
2023-01-04T03:47:06.336Z,7.20
2023-01-04T03:50:00.768Z,7.20
2023-01-04T03:52:31.104Z,7.20
2023-01-04T03:55:00.819Z,7.20
2023-01-04T03:57:28.548Z,7.20
2023-01-04T04:00:11.015Z,7.20
2023-01-04T04:02:39.698Z,7.20
2023-01-04T04:05:25.899Z,7.20
2023-01-04T04:08:11.584Z,7.10
2023-01-04T04:10:38.517Z,7.10
2023-01-04T04:13:05.455Z,7.00
2023-01-04T04:15:32.374Z,7.00
2023-01-04T04:17:59.298Z,7.00
2023-01-04T04:20:26.242Z,7.00
2023-01-04T04:22:53.766Z,7.00
2023-01-04T04:25:20.707Z,7.00
2023-01-04T04:27:47.613Z,7.10
2023-01-04T04:30:14.911Z,7.10
2023-01-04T04:32:42.149Z,7.10
2023-01-04T04:35:09.534Z,7.10
2023-01-04T04:37:37.361Z,7.10
2023-01-04T04:40:05.874Z,7.10
2023-01-04T04:42:33.053Z,7.10
2023-01-04T04:44:59.960Z,7.10
2023-01-04T04:47:26.862Z,7.10
2023-01-04T04:49:53.729Z,7.10
2023-01-04T04:52:20.624Z,7.00
2023-01-04T04:54:47.525Z,7.00
2023-01-04T04:57:14.401Z,7.00
2023-01-04T04:59:41.353Z,6.90
2023-01-04T05:02:08.499Z,6.90
2023-01-04T05:04:35.538Z,6.90
2023-01-04T05:07:04.140Z,6.90
2023-01-04T05:09:34.551Z,6.80
2023-01-04T05:12:19.960Z,6.70
2023-01-04T05:14:46.933Z,6.70
2023-01-04T05:17:13.940Z,6.60
2023-01-04T05:19:41.001Z,6.60
2023-01-04T05:22:07.960Z,6.60
2023-01-04T05:24:34.822Z,6.60
2023-01-04T05:27:01.769Z,6.50
2023-01-04T05:29:46.955Z,6.50
2023-01-04T05:32:13.911Z,6.50
2023-01-04T05:34:40.974Z,6.50
2023-01-04T05:37:07.881Z,6.50
2023-01-04T05:39:34.817Z,6.40
2023-01-04T05:42:20.292Z,6.50
2023-01-04T05:44:47.174Z,6.40
2023-01-04T05:47:15.292Z,6.40
2023-01-04T05:49:42.700Z,6.40
2023-01-04T05:52:09.895Z,6.40
2023-01-04T05:54:36.875Z,6.40
2023-01-04T05:57:04.155Z,6.40
2023-01-04T05:59:34.458Z,6.30
2023-01-04T06:02:06.667Z,6.40
2023-01-04T06:04:33.727Z,6.30
2023-01-04T06:07:00.630Z,6.30
2023-01-04T06:09:28.105Z,6.30
2023-01-04T06:11:55.092Z,6.30
2023-01-04T06:14:22.029Z,6.30
2023-01-04T06:16:49.054Z,6.30
2023-01-04T06:19:15.952Z,6.30
2023-01-04T06:21:42.941Z,6.30
2023-01-04T06:24:11.540Z,6.30
2023-01-04T06:26:38.567Z,6.30
2023-01-04T06:29:05.791Z,6.30
2023-01-04T06:31:33.774Z,6.20
2023-01-04T06:34:01.094Z,6.30
2023-01-04T06:36:28.373Z,6.20
2023-01-04T06:38:58.013Z,6.20
2023-01-04T06:41:25.385Z,6.20
2023-01-04T06:43:52.827Z,6.30
2023-01-04T06:46:20.180Z,6.30
2023-01-04T06:48:47.694Z,6.30
2023-01-04T06:51:14.803Z,6.30
2023-01-04T06:53:41.771Z,6.30
2023-01-04T06:56:09.424Z,6.20
2023-01-04T06:58:37.343Z,6.20
2023-01-04T07:01:04.797Z,6.20
2023-01-04T07:03:31.823Z,6.20
2023-01-04T07:05:58.898Z,6.20
2023-01-04T07:08:25.983Z,6.10
2023-01-04T07:10:53.479Z,6.20
2023-01-04T07:13:20.450Z,6.20
2023-01-04T07:15:47.445Z,6.10
2023-01-04T07:18:14.365Z,6.10
2023-01-04T07:20:41.281Z,6.10
2023-01-04T07:23:08.651Z,6.10
2023-01-04T07:25:36.061Z,6.10
2023-01-04T07:28:03.796Z,6.10
2023-01-04T07:30:30.663Z,6.10
2023-01-04T07:32:57.937Z,6.10
2023-01-04T07:35:25.227Z,6.20
2023-01-04T07:37:58.349Z,6.20
2023-01-04T07:40:26.509Z,6.20
2023-01-04T07:42:59.752Z,6.20
2023-01-04T07:45:27.771Z,6.20
2023-01-04T07:47:54.791Z,6.20
2023-01-04T07:50:21.832Z,6.20
2023-01-04T07:52:48.802Z,6.20
2023-01-04T07:55:15.736Z,6.20
2023-01-04T07:57:42.820Z,6.30
2023-01-04T08:00:11.665Z,6.30
2023-01-04T08:02:39.103Z,6.30
2023-01-04T08:05:06.590Z,6.40
2023-01-04T08:07:33.681Z,6.40
2023-01-04T08:10:01.748Z,6.40
2023-01-04T08:12:28.702Z,6.40
2023-01-04T08:14:55.684Z,6.50
2023-01-04T08:17:22.623Z,6.40
2023-01-04T08:19:49.517Z,6.50
2023-01-04T08:22:16.858Z,6.50
2023-01-04T08:24:44.015Z,6.50
2023-01-04T08:27:11.245Z,6.50
2023-01-04T08:29:38.870Z,6.50
2023-01-04T08:32:06.499Z,6.50
2023-01-04T08:34:33.428Z,6.50
2023-01-04T08:37:00.468Z,6.50
2023-01-04T08:39:29.688Z,6.50
2023-01-04T08:42:02.160Z,6.60
2023-01-04T08:44:30.235Z,6.50
2023-01-04T08:46:59.011Z,6.60
2023-01-04T08:49:26.551Z,6.60
2023-01-04T08:51:53.593Z,6.60
2023-01-04T08:54:20.669Z,6.60
2023-01-04T08:56:47.582Z,6.60
2023-01-04T08:59:14.959Z,6.60
2023-01-04T09:01:42.148Z,6.60
2023-01-04T09:04:09.933Z,6.60
2023-01-04T09:06:38.233Z,6.60
2023-01-04T09:09:05.885Z,6.60
2023-01-04T09:11:32.898Z,6.60
2023-01-04T09:14:09.376Z,6.70
2023-01-04T09:16:40.120Z,6.70
2023-01-04T09:19:07.998Z,6.70
2023-01-04T09:21:35.305Z,6.70
2023-01-04T09:24:02.350Z,6.70
2023-01-04T09:26:29.406Z,6.70
2023-01-04T09:28:57.122Z,6.70
2023-01-04T09:31:28.658Z,6.80
2023-01-04T09:34:15.124Z,6.80
2023-01-04T09:36:43.021Z,6.80
2023-01-04T09:39:18.422Z,6.80
2023-01-04T09:42:00.439Z,6.80
2023-01-04T09:47:41.936Z,6.80
2023-01-04T09:50:23.862Z,6.80
2023-01-04T09:53:12.515Z,6.80
2023-01-04T09:56:02.381Z,6.80
2023-01-04T09:58:33.290Z,6.80
2023-01-04T10:01:06.640Z,6.80
2023-01-04T10:03:35.808Z,6.90
2023-01-04T10:06:03.757Z,6.90
2023-01-04T10:08:33.656Z,6.90
2023-01-04T10:11:18.769Z,6.90
2023-01-04T10:14:04.279Z,6.90
2023-01-04T10:22:24.958Z,6.90
2023-01-04T10:25:49.143Z,7.00
2023-01-04T10:28:53.134Z,7.00
2023-01-04T10:31:39.623Z,7.00
2023-01-04T10:34:31.723Z,7.00
2023-01-04T10:37:05.752Z,7.00
2023-01-04T10:39:36.174Z,7.00
2023-01-04T10:42:32.156Z,7.10
2023-01-04T10:45:15.201Z,7.10
2023-01-04T10:47:57.808Z,7.10
2023-01-04T10:50:45.413Z,7.10
2023-01-04T10:53:34.442Z,7.10
2023-01-04T10:56:28.378Z,7.10
2023-01-04T10:59:00.876Z,7.20
2023-01-04T11:01:56.863Z,7.10
2023-01-04T11:04:33.482Z,7.20
2023-01-04T11:07:36.981Z,7.20
2023-01-04T11:10:10.988Z,7.20
2023-01-04T11:12:45.865Z,7.20
2023-01-04T11:15:12.913Z,7.20
2023-01-04T11:17:41.782Z,7.20
2023-01-04T11:20:09.695Z,7.20
2023-01-04T11:22:57.381Z,7.20
2023-01-04T11:25:37.129Z,7.20
2023-01-04T11:28:17.536Z,7.20
2023-01-04T11:30:50.630Z,7.20
2023-01-04T11:33:20.808Z,7.20
2023-01-04T11:35:53.112Z,7.20
2023-01-04T11:38:30.744Z,7.30
2023-01-04T11:41:08.594Z,7.30
2023-01-04T11:43:37.783Z,7.20
2023-01-04T11:46:06.785Z,7.30
2023-01-04T11:51:26.404Z,7.30
2023-01-04T11:54:02.360Z,7.30
2023-01-04T11:56:32.159Z,7.30
2023-01-04T11:59:06.831Z,7.30
2023-01-04T12:01:40.074Z,7.30
2023-01-04T12:04:14.538Z,7.30
2023-01-04T12:06:52.694Z,7.30
2023-01-04T12:09:21.195Z,7.30
2023-01-04T12:11:56.282Z,7.30
2023-01-04T12:14:44.384Z,7.30
2023-01-04T12:17:29.491Z,7.30
2023-01-04T12:19:58.056Z,7.30
2023-01-04T12:22:30.520Z,7.30
2023-01-04T12:25:02.932Z,7.40
2023-01-04T12:27:29.938Z,7.40
2023-01-04T12:30:02.227Z,7.30
2023-01-04T12:32:29.435Z,7.30
2023-01-04T12:34:56.602Z,7.30
2023-01-04T12:37:46.040Z,7.30
2023-01-04T12:40:45.458Z,7.30
2023-01-04T12:43:15.260Z,7.30
2023-01-04T12:45:48.488Z,7.30
2023-01-04T12:48:46.116Z,7.30
2023-01-04T12:51:33.268Z,7.30
2023-01-04T12:54:03.750Z,7.30
2023-01-04T12:57:08.266Z,7.30
2023-01-04T12:59:52.511Z,7.30
2023-01-04T13:02:32.196Z,7.30
2023-01-04T13:05:54.878Z,7.30
2023-01-04T13:08:11.658Z,7.30
2023-01-04T13:10:42.262Z,7.30
2023-01-04T13:13:33.311Z,7.30
2023-01-04T13:16:05.811Z,7.30
2023-01-04T13:18:59.825Z,7.30
2023-01-04T13:21:34.520Z,7.40
2023-01-04T13:24:05.233Z,7.30
2023-01-04T13:26:41.800Z,7.30
2023-01-04T13:29:34.400Z,7.30
2023-01-04T13:32:15.493Z,7.40
2023-01-04T13:35:14.333Z,7.40
2023-01-04T13:37:46.453Z,7.40
2023-01-04T13:40:29.787Z,7.50
2023-01-04T13:43:15.590Z,7.50
2023-01-04T13:46:05.509Z,7.50
2023-01-04T13:48:38.690Z,7.40
2023-01-04T13:51:41.176Z,7.50
2023-01-04T14:08:00.753Z,7.50
2023-01-04T14:10:49.159Z,7.50
2023-01-04T14:13:20.588Z,7.40
2023-01-04T14:15:47.821Z,7.50
2023-01-04T14:18:39.358Z,7.50
2023-01-04T14:21:18.163Z,7.50
2023-01-04T14:23:45.540Z,7.50
2023-01-04T14:26:38.927Z,7.50
2023-01-04T14:29:35.798Z,7.50
2023-01-04T14:32:08.142Z,7.50
2023-01-04T14:34:37.835Z,7.60
2023-01-04T14:37:04.985Z,7.60
2023-01-04T14:39:39.789Z,7.60
2023-01-04T14:42:25.613Z,7.70
2023-01-04T14:44:53.024Z,7.70
2023-01-04T14:47:20.074Z,7.70
2023-01-04T14:49:47.045Z,7.70
2023-01-04T14:52:24.014Z,7.70
2023-01-04T15:00:40.987Z,7.70
2023-01-04T15:03:09.764Z,7.60
2023-01-04T15:05:38.038Z,7.60
2023-01-04T15:08:05.270Z,7.60
2023-01-04T15:10:32.331Z,7.60
2023-01-04T15:13:04.448Z,7.60
2023-01-04T15:15:35.447Z,7.50
2023-01-04T15:18:02.881Z,7.50
2023-01-04T15:20:29.961Z,7.50
2023-01-04T15:22:58.471Z,7.50
2023-01-04T15:25:27.195Z,7.40
2023-01-04T15:27:54.151Z,7.40
2023-01-04T15:30:21.259Z,7.40
2023-01-04T15:32:48.183Z,7.40
2023-01-04T15:35:17.220Z,7.30
2023-01-04T15:41:36.379Z,7.20
2023-01-04T15:44:09.883Z,7.20
2023-01-04T15:46:37.087Z,7.10
2023-01-04T15:49:04.094Z,7.10
2023-01-04T15:51:31.028Z,7.10
2023-01-04T15:53:58.067Z,7.10
2023-01-04T15:56:25.960Z,7.10
2023-01-04T15:58:55.835Z,7.10
2023-01-04T16:01:23.261Z,7.10
2023-01-04T16:03:53.859Z,7.00
2023-01-04T16:09:03.803Z,6.90
2023-01-04T16:11:30.762Z,6.80
2023-01-04T16:13:58.045Z,6.80
2023-01-04T16:16:30.436Z,6.90
2023-01-04T16:21:40.094Z,6.80
2023-01-04T16:33:47.647Z,6.80
2023-01-04T16:36:23.189Z,6.80
2023-01-04T16:38:54.380Z,6.80
2023-01-04T16:41:22.488Z,6.80
2023-01-04T16:43:55.565Z,6.80
2023-01-04T16:46:31.323Z,6.80
2023-01-04T16:49:06.608Z,6.70
2023-01-04T16:51:42.377Z,6.70
2023-01-04T16:54:11.741Z,6.60
2023-01-04T16:57:24.374Z,6.60
2023-01-04T16:59:52.142Z,6.60
2023-01-04T17:04:57.432Z,6.50
2023-01-04T17:07:25.617Z,6.50
2023-01-04T17:09:52.820Z,6.60
2023-01-04T17:12:46.326Z,6.50
2023-01-04T17:20:33.574Z,6.70
2023-01-04T17:23:00.556Z,6.70
2023-01-04T17:25:28.930Z,6.80
2023-01-04T17:27:55.950Z,6.70
2023-01-04T17:30:22.971Z,6.80
2023-01-04T17:32:49.923Z,6.80
2023-01-04T17:35:17.019Z,6.80
2023-01-04T17:37:44.039Z,6.80
2023-01-04T17:40:12.015Z,6.90
2023-01-04T17:42:41.252Z,6.90
2023-01-04T17:45:08.982Z,7.00
2023-01-04T17:47:36.053Z,7.10
2023-01-04T17:50:03.397Z,7.10
2023-01-04T17:52:31.587Z,7.10
2023-01-04T17:54:58.949Z,7.10
2023-01-04T17:57:25.905Z,7.10
2023-01-04T17:59:52.877Z,7.10
2023-01-04T18:02:19.935Z,7.10
2023-01-04T18:04:47.042Z,7.10
2023-01-04T18:07:13.991Z,7.10
2023-01-04T18:09:40.960Z,7.20
2023-01-04T18:12:07.971Z,7.10
2023-01-04T18:14:35.129Z,7.10
2023-01-04T18:17:02.142Z,7.10
2023-01-04T18:19:30.843Z,7.10
2023-01-04T18:21:58.529Z,7.20
2023-01-04T18:24:41.999Z,7.20
2023-01-04T18:27:27.441Z,7.30
2023-01-04T18:29:56.153Z,7.20
2023-01-04T18:32:24.880Z,7.20
2023-01-04T18:34:52.092Z,7.20
2023-01-04T18:37:19.621Z,7.30
2023-01-04T18:39:51.475Z,7.30
2023-01-04T18:42:19.848Z,7.30
2023-01-04T18:44:54.241Z,7.20
2023-01-04T18:50:10.502Z,7.20
2023-01-04T18:52:40.569Z,7.20
2023-01-04T18:55:08.256Z,7.20
2023-01-04T18:57:37.720Z,7.20
2023-01-04T19:00:12.815Z,7.20
2023-01-04T19:02:40.994Z,7.30
2023-01-04T19:05:12.727Z,7.20
2023-01-04T19:07:41.588Z,7.20
2023-01-04T19:10:11.234Z,7.20
2023-01-04T19:12:41.541Z,7.30
2023-01-04T19:15:33.274Z,7.30
2023-01-04T19:18:10.274Z,7.30
2023-01-04T19:20:56.701Z,7.20
2023-01-04T19:23:26.432Z,7.20
2023-01-04T19:25:59.990Z,7.20
2023-01-04T19:28:28.448Z,7.20
2023-01-04T19:30:57.543Z,7.10
2023-01-04T19:33:33.671Z,7.10
2023-01-04T19:36:00.639Z,7.10
2023-01-04T19:38:27.927Z,7.10
2023-01-04T19:40:59.964Z,7.10
2023-01-04T19:43:27.382Z,7.10
2023-01-04T19:45:54.284Z,7.10
2023-01-04T19:48:23.880Z,7.10
2023-01-04T19:51:04.006Z,7.10
2023-01-04T19:53:30.869Z,7.00
2023-01-04T19:55:57.798Z,7.00
2023-01-04T19:58:24.813Z,7.00
2023-01-04T20:00:54.817Z,6.90
2023-01-04T20:03:23.780Z,6.90
2023-01-04T20:05:51.554Z,6.90
2023-01-04T20:08:18.866Z,6.90
2023-01-04T20:10:45.744Z,6.90
2023-01-04T20:13:12.731Z,6.90
2023-01-04T20:15:40.363Z,6.90
2023-01-04T20:18:13.421Z,7.00
2023-01-04T20:20:45.138Z,7.00
2023-01-04T20:23:13.178Z,6.90
2023-01-04T20:25:42.129Z,6.90
2023-01-04T20:28:09.110Z,6.90
2023-01-04T20:30:36.092Z,6.90
2023-01-04T20:33:03.238Z,6.90
2023-01-04T20:35:31.412Z,6.90
2023-01-04T20:37:58.789Z,6.90
2023-01-04T20:40:27.307Z,6.90
2023-01-04T20:43:16.840Z,6.90
2023-01-04T20:48:19.339Z,6.80
2023-01-04T20:50:46.233Z,6.70
2023-01-04T20:53:13.645Z,6.70
2023-01-04T20:55:41.863Z,6.70
2023-01-04T20:58:10.880Z,6.70
2023-01-04T21:00:39.946Z,6.80
2023-01-04T21:03:09.431Z,6.80
2023-01-04T21:05:45.569Z,6.80
2023-01-04T21:08:13.559Z,6.80
2023-01-04T21:10:43.956Z,6.80
2023-01-04T21:13:12.249Z,6.80
2023-01-04T21:15:40.120Z,6.90
2023-01-04T21:18:07.507Z,6.80
2023-01-04T21:20:34.409Z,6.80
2023-01-04T21:23:01.335Z,6.70
2023-01-04T21:25:28.327Z,6.70
2023-01-04T21:27:55.259Z,6.70
2023-01-04T21:30:22.191Z,6.70
2023-01-04T21:35:16.609Z,6.70
2023-01-04T21:37:43.513Z,6.60
2023-01-04T21:40:11.022Z,6.70
2023-01-04T21:42:37.884Z,6.70
2023-01-04T21:45:05.365Z,6.70
2023-01-04T21:47:33.045Z,6.60
2023-01-04T21:50:00.099Z,6.60
2023-01-04T21:52:27.223Z,6.50
2023-01-04T21:54:54.286Z,6.50
2023-01-04T21:57:21.287Z,6.50
2023-01-04T21:59:48.448Z,6.40
2023-01-04T22:02:19.886Z,6.40
2023-01-04T22:04:47.656Z,6.40
2023-01-04T22:07:14.867Z,6.40
2023-01-04T22:09:42.187Z,6.50
2023-01-04T22:12:09.282Z,6.40
2023-01-04T22:14:36.312Z,6.50
2023-01-04T22:17:03.269Z,6.50
2023-01-04T22:19:30.307Z,6.50
2023-01-04T22:21:57.326Z,6.50
2023-01-04T22:24:24.436Z,6.50
2023-01-04T22:26:53.422Z,6.40
2023-01-04T22:29:21.623Z,6.40
2023-01-04T22:31:49.310Z,6.30
2023-01-04T22:34:17.227Z,6.40
2023-01-04T22:37:04.236Z,6.40
2023-01-04T22:39:32.102Z,6.30
2023-01-04T22:41:59.576Z,6.30
2023-01-04T22:44:30.895Z,6.30
2023-01-04T22:46:58.020Z,6.30
2023-01-04T22:49:25.008Z,6.20
2023-01-04T22:51:54.356Z,6.20
2023-01-04T22:54:21.531Z,6.10
2023-01-04T22:56:48.667Z,6.10
2023-01-04T22:59:15.685Z,6.00
2023-01-04T23:01:42.701Z,6.00
2023-01-04T23:04:18.018Z,5.90
2023-01-04T23:06:45.365Z,5.90
2023-01-04T23:09:16.570Z,5.90
2023-01-04T23:11:44.091Z,5.80
2023-01-04T23:14:16.194Z,5.80
2023-01-04T23:16:44.916Z,5.80
2023-01-04T23:19:13.491Z,5.80
2023-01-04T23:21:40.888Z,5.80
2023-01-04T23:24:10.568Z,5.80
2023-01-04T23:26:37.437Z,5.80
2023-01-04T23:29:04.398Z,5.80
2023-01-04T23:31:32.715Z,5.70
2023-01-04T23:34:05.341Z,5.60
2023-01-04T23:36:38.203Z,5.70
2023-01-04T23:39:09.188Z,5.60
2023-01-04T23:41:45.565Z,5.70
2023-01-04T23:44:12.958Z,5.60
2023-01-04T23:46:39.853Z,5.60
2023-01-04T23:49:06.958Z,5.50
2023-01-04T23:51:33.865Z,5.50
2023-01-04T23:54:00.753Z,5.40
2023-01-04T23:56:27.722Z,5.30
2023-01-04T23:58:54.591Z,5.10
